createdAt,value
2019-05-01T00:02:20.886Z,3.50
2019-05-01T00:05:09.609Z,3.03
2019-05-01T00:07:40.607Z,3.07
2019-05-01T00:10:11.897Z,3.10
2019-05-01T00:12:42.820Z,3.20
2019-05-01T00:15:15.079Z,2.90
2019-05-01T00:17:45.816Z,2.80
2019-05-01T00:20:17.138Z,2.97
2019-05-01T00:22:47.824Z,2.60
2019-05-01T00:25:18.560Z,3.00
2019-05-01T00:27:49.187Z,3.13
2019-05-01T00:30:29.644Z,2.80
2019-05-01T00:32:54.163Z,2.83
2019-05-01T00:35:24.798Z,2.70
2019-05-01T00:37:55.469Z,3.00
2019-05-01T00:40:26.931Z,3.00
2019-05-01T00:42:57.616Z,2.90
2019-05-01T00:45:28.331Z,3.10
2019-05-01T00:47:58.985Z,3.00
2019-05-01T00:50:29.679Z,3.00
2019-05-01T00:53:00.318Z,3.40
2019-05-01T00:55:56.458Z,3.43
2019-05-01T00:58:54.218Z,3.80
2019-05-01T01:01:45.753Z,3.87
2019-05-01T01:04:18.581Z,3.70
2019-05-01T01:06:49.235Z,3.83
2019-05-01T01:09:20.132Z,4.00
2019-05-01T01:11:50.824Z,4.27
2019-05-01T01:14:21.504Z,4.37
2019-05-01T01:16:52.099Z,4.00
2019-05-01T01:19:22.769Z,4.17
2019-05-01T01:21:53.598Z,4.03
2019-05-01T01:24:24.232Z,4.17
2019-05-01T01:26:55.067Z,4.57
2019-05-01T01:29:26.257Z,4.80
2019-05-01T01:31:56.939Z,4.93
2019-05-01T01:34:28.042Z,5.27
2019-05-01T01:36:58.750Z,5.93
2019-05-01T01:39:29.336Z,5.53
2019-05-01T01:42:00.372Z,5.07
2019-05-01T01:44:42.476Z,4.47
2019-05-01T01:47:13.310Z,4.80
2019-05-01T01:49:43.924Z,4.60
2019-05-01T01:52:14.854Z,4.73
2019-05-01T01:54:45.597Z,4.57
2019-05-01T01:57:16.754Z,4.47
2019-05-01T01:59:47.482Z,4.30
2019-05-01T02:02:43.600Z,4.30
2019-05-01T02:05:21.257Z,3.90
2019-05-01T02:07:52.062Z,4.20
2019-05-01T02:10:23.056Z,4.33
2019-05-01T02:12:53.925Z,4.13
2019-05-01T02:15:24.977Z,5.17
2019-05-01T02:17:55.665Z,4.73
2019-05-01T02:20:26.711Z,4.80
2019-05-01T02:22:57.311Z,3.83
2019-05-01T02:25:30.080Z,4.00
2019-05-01T02:28:32.281Z,4.57
2019-05-01T02:31:29.282Z,4.60
2019-05-01T02:34:02.237Z,4.80
2019-05-01T02:36:35.131Z,5.07
2019-05-01T02:39:09.341Z,4.80
2019-05-01T02:41:43.901Z,4.70
2019-05-01T02:44:26.081Z,4.47
2019-05-01T02:47:01.607Z,5.03
2019-05-01T02:49:52.577Z,5.10
2019-05-01T02:52:30.031Z,3.87
2019-05-01T02:55:06.616Z,4.40
2019-05-01T02:57:40.829Z,4.07
2019-05-01T03:00:12.020Z,4.00
2019-05-01T03:02:43.498Z,4.13
2019-05-01T03:05:14.191Z,3.67
2019-05-01T03:07:45.649Z,3.47
2019-05-01T03:10:16.805Z,4.00
2019-05-01T03:12:50.813Z,4.40
2019-05-01T03:15:25.107Z,3.97
2019-05-01T03:18:19.309Z,3.83
2019-05-01T03:21:09.027Z,4.40
2019-05-01T03:23:44.229Z,4.40
2019-05-01T03:26:15.790Z,4.77
2019-05-01T03:28:46.709Z,4.33
2019-05-01T03:31:17.597Z,4.90
2019-05-01T03:33:48.483Z,5.30
2019-05-01T03:36:19.478Z,5.10
2019-05-01T03:38:50.430Z,5.57
2019-05-01T03:41:22.242Z,5.20
2019-05-01T03:43:53.351Z,5.13
2019-05-01T03:46:24.899Z,5.40
2019-05-01T03:48:56.222Z,5.10
2019-05-01T03:51:27.382Z,5.33
2019-05-01T03:53:58.118Z,5.57
2019-05-01T03:56:29.468Z,5.90
2019-05-01T03:59:00.839Z,6.20
2019-05-01T04:01:59.958Z,6.43
2019-05-01T04:04:31.773Z,6.73
2019-05-01T04:07:02.685Z,6.87
2019-05-01T04:09:33.438Z,6.97
2019-05-01T04:12:04.747Z,6.97
2019-05-01T04:14:38.870Z,6.87
2019-05-01T04:17:14.490Z,6.97
2019-05-01T04:19:45.729Z,6.13
2019-05-01T04:22:16.697Z,7.40
2019-05-01T04:24:48.286Z,7.63
2019-05-01T04:27:27.670Z,7.67
2019-05-01T04:30:09.489Z,8.43
2019-05-01T04:32:52.147Z,8.83
2019-05-01T04:35:20.968Z,8.43
2019-05-01T04:37:53.160Z,9.03
2019-05-01T04:40:24.228Z,8.93
2019-05-01T04:42:55.124Z,9.30
2019-05-01T04:45:26.922Z,9.97
2019-05-01T04:47:58.169Z,10.87
2019-05-01T04:50:29.659Z,10.60
2019-05-01T04:53:01.449Z,11.33
2019-05-01T04:55:33.058Z,14.90
2019-05-01T04:58:04.297Z,13.57
2019-05-01T05:00:35.468Z,15.77
2019-05-01T05:03:10.029Z,16.60
2019-05-01T05:05:40.857Z,16.33
2019-05-01T05:08:11.639Z,15.90
2019-05-01T05:10:42.688Z,16.63
2019-05-01T05:13:21.658Z,15.47
2019-05-01T05:16:01.139Z,16.23
2019-05-01T05:18:32.466Z,16.00
2019-05-01T05:21:03.491Z,17.27
2019-05-01T05:23:34.523Z,16.13
2019-05-01T05:26:05.987Z,17.70
2019-05-01T05:28:37.719Z,17.17
2019-05-01T05:31:09.136Z,16.63
2019-05-01T05:33:43.466Z,17.20
2019-05-01T05:36:17.239Z,17.97
2019-05-01T05:38:56.728Z,16.77
2019-05-01T05:41:29.063Z,17.60
2019-05-01T05:44:00.230Z,17.73
2019-05-01T05:46:31.883Z,16.63
2019-05-01T05:49:02.733Z,17.10
2019-05-01T05:51:54.229Z,18.30
2019-05-01T05:54:50.896Z,17.80
2019-05-01T05:57:31.892Z,18.83
2019-05-01T06:00:30.599Z,17.80
2019-05-01T06:03:31.045Z,18.40
2019-05-01T06:06:20.527Z,18.93
2019-05-01T06:08:55.881Z,18.30
2019-05-01T06:12:08.968Z,17.73
2019-05-01T06:15:06.418Z,17.63
2019-05-01T06:17:43.712Z,17.87
2019-05-01T06:20:31.618Z,18.17
2019-05-01T06:23:20.739Z,17.57
2019-05-01T06:26:00.073Z,18.67
2019-05-01T06:28:29.897Z,19.53
2019-05-01T06:31:22.911Z,19.13
2019-05-01T06:33:52.993Z,19.63
2019-05-01T06:36:23.961Z,19.93
2019-05-01T06:38:56.223Z,19.90
2019-05-01T06:41:33.736Z,19.27
2019-05-01T06:44:12.636Z,20.27
2019-05-01T06:46:52.723Z,21.17
2019-05-01T06:49:42.878Z,21.33
2019-05-01T06:52:16.289Z,19.73
2019-05-01T06:54:47.795Z,20.13
2019-05-01T06:57:20.231Z,21.93
2019-05-01T06:59:51.008Z,20.60
2019-05-01T07:02:22.327Z,21.77
2019-05-01T07:04:53.486Z,22.77
2019-05-01T07:07:25.985Z,23.00
2019-05-01T07:10:02.095Z,23.47
2019-05-01T07:12:39.722Z,24.27
2019-05-01T07:15:13.257Z,24.77
2019-05-01T07:17:47.877Z,24.37
2019-05-01T07:20:51.327Z,25.53
2019-05-01T07:23:24.911Z,23.33
2019-05-01T07:25:58.430Z,23.83
2019-05-01T07:28:34.619Z,24.40
2019-05-01T07:31:06.974Z,24.13
2019-05-01T07:33:39.679Z,25.70
2019-05-01T07:36:15.272Z,24.20
2019-05-01T07:38:45.505Z,27.40
2019-05-01T07:41:16.250Z,26.33
2019-05-01T07:44:01.244Z,25.63
2019-05-01T07:46:37.944Z,25.33
2019-05-01T07:49:13.053Z,23.63
2019-05-01T07:51:50.321Z,25.60
2019-05-01T07:54:23.443Z,25.53
2019-05-01T08:04:36.528Z,23.80
2019-05-01T08:07:07.005Z,24.30
2019-05-01T08:09:37.858Z,23.10
2019-05-01T08:12:08.782Z,23.83
2019-05-01T08:14:39.613Z,22.87
2019-05-01T08:17:12.829Z,24.10
2019-05-01T08:19:51.889Z,24.50
2019-05-01T08:22:32.118Z,23.03
2019-05-01T08:25:00.471Z,23.47
2019-05-01T08:27:55.595Z,23.87
2019-05-01T08:30:52.345Z,23.20
2019-05-01T08:33:38.259Z,23.53
2019-05-01T08:36:11.707Z,25.20
2019-05-01T08:38:42.902Z,23.80
2019-05-01T08:41:13.590Z,23.90
2019-05-01T08:43:48.864Z,25.20
2019-05-01T08:46:46.885Z,25.60
2019-05-01T08:49:33.414Z,24.03
2019-05-01T08:52:04.872Z,25.33
2019-05-01T08:54:37.283Z,25.67
2019-05-01T08:57:08.167Z,25.17
2019-05-01T08:59:39.582Z,26.00
2019-05-01T09:02:10.269Z,26.53
2019-05-01T09:04:40.967Z,26.20
2019-05-01T09:07:14.701Z,25.93
2019-05-01T09:09:45.612Z,26.40
2019-05-01T09:12:16.874Z,26.17
2019-05-01T09:14:47.537Z,26.30
2019-05-01T09:17:18.294Z,24.83
2019-05-01T09:19:48.944Z,25.10
2019-05-01T09:22:19.690Z,26.27
2019-05-01T09:24:50.498Z,26.07
2019-05-01T09:27:39.127Z,24.30
2019-05-01T09:30:21.970Z,25.90
2019-05-01T09:32:54.334Z,25.90
2019-05-01T09:35:24.457Z,27.00
2019-05-01T09:37:55.332Z,25.90
2019-05-01T09:40:26.791Z,25.00
2019-05-01T09:42:59.300Z,26.17
2019-05-01T09:45:30.415Z,26.70
2019-05-01T09:48:01.120Z,25.87
2019-05-01T09:50:33.417Z,25.00
2019-05-01T09:53:18.392Z,26.57
2019-05-01T09:56:03.292Z,25.53
2019-05-01T09:58:35.484Z,26.57
2019-05-01T10:01:06.420Z,25.93
2019-05-01T10:03:37.297Z,28.30
2019-05-01T10:06:08.017Z,29.10
2019-05-01T10:08:41.736Z,28.43
2019-05-01T10:11:12.120Z,26.67
2019-05-01T10:13:43.617Z,28.17
2019-05-01T10:16:14.402Z,27.00
2019-05-01T10:18:45.499Z,25.93
2019-05-01T10:21:16.180Z,27.27
2019-05-01T10:23:47.247Z,28.63
2019-05-01T10:26:24.053Z,28.90
2019-05-01T10:29:27.492Z,28.00
2019-05-01T10:32:21.512Z,29.43
2019-05-01T10:34:57.153Z,29.27
2019-05-01T10:37:33.856Z,30.57
2019-05-01T10:40:01.491Z,27.13
2019-05-01T10:42:32.426Z,29.23
2019-05-01T10:45:04.236Z,29.17
2019-05-01T10:47:35.238Z,29.10
2019-05-01T10:50:06.252Z,31.30
2019-05-01T10:52:40.993Z,30.93
2019-05-01T10:55:12.514Z,30.77
2019-05-01T10:57:44.329Z,30.87
2019-05-01T11:00:16.146Z,31.60
2019-05-01T11:02:46.907Z,33.43
2019-05-01T11:05:17.821Z,32.87
2019-05-01T11:07:48.565Z,30.63
2019-05-01T11:10:21.283Z,30.70
2019-05-01T11:12:52.133Z,29.30
2019-05-01T11:15:23.073Z,28.90
2019-05-01T11:17:54.492Z,29.17
2019-05-01T11:20:29.875Z,29.23
2019-05-01T11:23:08.224Z,28.53
2019-05-01T11:25:39.594Z,27.67
2019-05-01T11:28:10.514Z,25.83
2019-05-01T11:30:42.111Z,26.23
2019-05-01T11:33:19.011Z,25.00
2019-05-01T11:36:14.830Z,22.10
2019-05-01T11:38:54.358Z,21.83
2019-05-01T11:41:29.647Z,21.90
2019-05-01T11:44:00.362Z,21.63
2019-05-01T11:46:31.474Z,21.57
2019-05-01T11:49:02.258Z,20.67
2019-05-01T11:51:34.177Z,22.53
2019-05-01T11:54:05.080Z,23.83
2019-05-01T11:56:35.883Z,23.33
2019-05-01T11:59:07.810Z,20.67
2019-05-01T12:01:39.454Z,21.00
2019-05-01T12:04:10.191Z,21.43
2019-05-01T12:06:42.204Z,20.53
2019-05-01T12:09:12.947Z,21.70
2019-05-01T12:11:46.179Z,20.97
2019-05-01T12:14:19.227Z,22.03
2019-05-01T12:17:07.576Z,20.37
2019-05-01T12:19:38.341Z,20.53
2019-05-01T12:22:09.082Z,19.63
2019-05-01T12:24:40.887Z,19.70
2019-05-01T12:27:11.578Z,20.50
2019-05-01T12:29:42.296Z,20.20
2019-05-01T12:32:13.092Z,20.27
2019-05-01T12:34:43.995Z,18.87
2019-05-01T12:37:18.153Z,18.70
2019-05-01T12:39:49.118Z,16.93
2019-05-01T12:42:21.705Z,16.57
2019-05-01T12:44:52.852Z,15.17
2019-05-01T12:47:33.658Z,14.80
2019-05-01T12:50:04.760Z,14.87
2019-05-01T12:52:48.713Z,14.27
2019-05-01T12:55:25.637Z,14.60
2019-05-01T12:57:56.299Z,15.33
2019-05-01T13:00:43.724Z,16.13
2019-05-01T13:03:14.367Z,15.50
2019-05-01T13:05:45.175Z,14.63
2019-05-01T13:08:15.866Z,15.57
2019-05-01T13:10:46.793Z,15.03
2019-05-01T13:13:18.138Z,16.40
2019-05-01T13:15:49.036Z,16.33
2019-05-01T13:18:19.810Z,15.33
2019-05-01T13:20:51.011Z,14.80
2019-05-01T13:23:21.715Z,15.57
2019-05-01T13:25:54.981Z,14.47
2019-05-01T13:28:56.378Z,16.37
2019-05-01T13:31:44.227Z,16.97
2019-05-01T13:34:15.484Z,15.87
2019-05-01T13:36:46.201Z,16.63
2019-05-01T13:39:17.268Z,15.27
2019-05-01T13:41:48.044Z,14.23
2019-05-01T13:44:18.692Z,12.63
2019-05-01T13:46:49.960Z,11.53
2019-05-01T13:49:20.754Z,12.63
2019-05-01T13:51:51.683Z,14.40
2019-05-01T13:54:22.548Z,13.83
2019-05-01T13:56:54.067Z,13.13
2019-05-01T13:59:24.700Z,15.17
2019-05-01T14:01:55.514Z,16.00
2019-05-01T14:04:27.056Z,15.83
2019-05-01T14:06:57.856Z,15.53
2019-05-01T14:09:32.194Z,14.40
2019-05-01T14:12:02.959Z,14.97
2019-05-01T14:14:33.653Z,14.30
2019-05-01T14:17:04.265Z,14.13
2019-05-01T14:19:36.648Z,14.13
2019-05-01T14:22:22.543Z,13.23
2019-05-01T14:24:56.535Z,14.03
2019-05-01T14:27:27.189Z,14.37
2019-05-01T14:29:57.899Z,14.07
2019-05-01T14:32:28.976Z,14.73
2019-05-01T14:35:00.751Z,12.63
2019-05-01T14:37:31.549Z,12.60
2019-05-01T14:40:08.857Z,12.77
2019-05-01T14:42:40.131Z,13.23
2019-05-01T14:45:12.114Z,11.90
2019-05-01T14:47:42.844Z,10.73
2019-05-01T14:50:13.610Z,9.63
2019-05-01T14:52:44.314Z,8.73
2019-05-01T14:55:15.660Z,8.47
2019-05-01T14:57:46.332Z,9.00
2019-05-01T15:00:17.977Z,7.90
2019-05-01T15:02:48.704Z,8.43
2019-05-01T15:05:19.447Z,8.50
2019-05-01T15:07:50.484Z,8.93
2019-05-01T15:10:21.447Z,9.07
2019-05-01T15:12:54.447Z,8.87
2019-05-01T15:15:32.887Z,9.97
2019-05-01T15:18:09.555Z,10.13
2019-05-01T15:20:40.198Z,9.63
2019-05-01T15:23:10.897Z,8.77
2019-05-01T15:25:41.581Z,9.43
2019-05-01T15:28:12.454Z,9.47
2019-05-01T15:30:43.917Z,9.33
2019-05-01T15:33:17.344Z,9.40
2019-05-01T15:35:48.144Z,10.63
2019-05-01T15:38:18.826Z,9.27
2019-05-01T15:40:57.598Z,9.07
2019-05-01T15:43:33.041Z,7.57
2019-05-01T15:46:03.778Z,8.13
2019-05-01T15:48:34.555Z,8.53
2019-05-01T15:51:05.460Z,8.53
2019-05-01T15:53:36.203Z,8.10
2019-05-01T15:56:07.174Z,7.43
2019-05-01T15:58:38.006Z,6.40
2019-05-01T16:01:08.904Z,6.63
2019-05-01T16:03:40.357Z,6.93
2019-05-01T16:06:11.117Z,5.57
2019-05-01T16:08:42.684Z,6.40
2019-05-01T16:11:30.159Z,11.53
2019-05-01T16:14:02.093Z,8.00
2019-05-01T16:16:33.515Z,7.17
2019-05-01T16:19:04.453Z,7.37
2019-05-01T16:21:35.404Z,5.83
2019-05-01T16:24:09.375Z,5.77
2019-05-01T16:26:40.953Z,5.30
2019-05-01T16:29:11.675Z,5.80
2019-05-01T16:31:43.257Z,5.23
2019-05-01T16:34:15.292Z,5.57
2019-05-01T16:36:46.674Z,4.77
2019-05-01T16:39:52.784Z,4.63
2019-05-01T16:42:41.725Z,4.73
2019-05-01T16:45:15.776Z,4.70
2019-05-01T16:47:46.444Z,4.67
2019-05-01T16:50:17.554Z,5.00
2019-05-01T16:52:48.219Z,4.43
2019-05-01T16:55:19.568Z,4.80
2019-05-01T16:57:50.395Z,4.77
2019-05-01T17:00:40.307Z,4.50
2019-05-01T17:03:20.431Z,5.27
2019-05-01T17:06:01.004Z,4.57
2019-05-01T17:08:49.079Z,5.42
2019-05-01T17:11:23.358Z,4.57
2019-05-01T17:14:06.466Z,4.63
2019-05-01T17:16:37.334Z,4.80
2019-05-01T17:19:08.878Z,4.90
2019-05-01T17:21:40.399Z,5.00
2019-05-01T17:24:11.193Z,5.00
2019-05-01T17:26:41.945Z,4.40
2019-05-01T17:29:12.683Z,4.83
2019-05-01T17:31:43.398Z,4.47
2019-05-01T17:34:15.080Z,6.40
2019-05-01T17:36:45.893Z,7.20
2019-05-01T17:39:17.526Z,5.93
2019-05-01T17:41:51.060Z,5.63
2019-05-01T17:44:25.090Z,8.03
2019-05-01T17:46:55.214Z,9.30
2019-05-01T17:49:27.523Z,9.57
2019-05-01T17:51:59.994Z,5.77
2019-05-01T17:54:30.752Z,4.57
2019-05-01T17:57:01.863Z,4.13
2019-05-01T17:59:32.641Z,4.43
2019-05-01T18:02:16.358Z,9.17
2019-05-01T18:05:06.046Z,6.23
2019-05-01T18:07:36.719Z,5.33
2019-05-01T18:10:08.312Z,5.10
2019-05-01T18:12:39.977Z,6.90
2019-05-01T18:15:10.940Z,4.80
2019-05-01T18:17:41.876Z,5.40
2019-05-01T18:20:12.890Z,4.80
2019-05-01T18:23:01.103Z,3.47
2019-05-01T18:25:53.732Z,3.37
2019-05-01T18:28:35.901Z,2.50
2019-05-01T18:31:21.340Z,2.43
2019-05-01T18:34:02.699Z,2.87
2019-05-01T18:36:43.455Z,2.40
2019-05-01T18:39:30.239Z,2.57
2019-05-01T18:42:06.406Z,2.70
2019-05-01T18:44:37.136Z,2.20
2019-05-01T18:47:09.063Z,2.60
2019-05-01T18:49:39.679Z,2.30
2019-05-01T18:52:10.979Z,2.23
2019-05-01T18:54:43.795Z,2.47
2019-05-01T18:57:14.552Z,2.37
2019-05-01T18:59:45.266Z,2.23
2019-05-01T19:02:20.436Z,2.07
2019-05-01T19:04:50.162Z,2.00
2019-05-01T19:07:21.514Z,2.20
2019-05-01T19:09:52.770Z,2.60
2019-05-01T19:12:24.542Z,2.47
2019-05-01T19:15:00.283Z,2.77
2019-05-01T19:17:28.855Z,2.37
2019-05-01T19:19:59.573Z,3.00
2019-05-01T19:22:30.311Z,2.50
2019-05-01T19:25:01.092Z,2.37
2019-05-01T19:27:32.307Z,2.63
2019-05-01T19:30:03.137Z,2.70
2019-05-01T19:32:34.100Z,2.63
2019-05-01T19:35:05.508Z,2.90
2019-05-01T19:37:36.153Z,2.93
2019-05-01T19:40:07.779Z,2.77
2019-05-01T19:42:40.226Z,3.03
2019-05-01T19:45:11.040Z,2.80
2019-05-01T19:47:41.691Z,3.10
2019-05-01T19:50:14.095Z,3.47
2019-05-01T19:52:44.762Z,3.77
2019-05-01T19:55:16.980Z,4.07
2019-05-01T19:57:47.677Z,4.27
2019-05-01T20:00:52.006Z,3.83
2019-05-01T20:03:23.170Z,4.00
2019-05-01T20:05:53.962Z,4.60
2019-05-01T20:08:24.677Z,4.07
2019-05-01T20:10:55.574Z,4.33
2019-05-01T20:13:26.374Z,4.20
2019-05-01T20:15:57.240Z,4.47
2019-05-01T20:18:28.039Z,4.50
2019-05-01T20:20:58.730Z,4.17
2019-05-01T20:23:31.572Z,4.27
2019-05-01T20:26:02.374Z,4.13
2019-05-01T20:28:33.226Z,4.57
2019-05-01T20:31:04.024Z,4.13
2019-05-01T20:33:39.154Z,4.37
2019-05-01T20:36:07.513Z,4.43
2019-05-01T20:38:38.254Z,4.53
2019-05-01T20:41:10.129Z,4.50
2019-05-01T20:43:43.465Z,4.83
2019-05-01T20:46:14.030Z,4.73
2019-05-01T20:48:44.938Z,4.50
2019-05-01T20:51:15.799Z,4.73
2019-05-01T20:53:46.400Z,4.80
2019-05-01T20:56:28.328Z,4.80
2019-05-01T20:59:03.298Z,4.70
2019-05-01T21:01:32.106Z,4.73
2019-05-01T21:04:36.934Z,4.57
2019-05-01T21:07:35.843Z,4.27
2019-05-01T21:10:07.193Z,5.10
2019-05-01T21:12:38.503Z,4.00
2019-05-01T21:15:10.776Z,4.60
2019-05-01T21:17:44.315Z,4.63
2019-05-01T21:20:14.343Z,4.60
2019-05-01T21:22:44.981Z,4.73
2019-05-01T21:25:16.008Z,5.10
2019-05-01T21:27:46.654Z,4.53
2019-05-01T21:30:17.726Z,4.53
2019-05-01T21:32:48.395Z,4.40
2019-05-01T21:35:19.712Z,5.30
2019-05-01T21:37:50.345Z,4.80
2019-05-01T21:40:23.011Z,4.60
2019-05-01T21:42:55.845Z,5.20
2019-05-01T21:45:26.659Z,4.50
2019-05-01T21:47:57.324Z,4.53
2019-05-01T21:50:27.962Z,5.50
2019-05-01T21:53:05.374Z,4.60
2019-05-01T21:55:32.130Z,4.90
2019-05-01T21:58:05.183Z,5.90
2019-05-01T22:00:40.691Z,5.57
2019-05-01T22:03:11.724Z,4.70
2019-05-01T22:05:42.945Z,4.40
2019-05-01T22:08:13.587Z,4.67
2019-05-01T22:10:51.746Z,4.80
2019-05-01T22:13:20.423Z,4.60
2019-05-01T22:15:54.756Z,4.73
2019-05-01T22:18:33.003Z,4.20
2019-05-01T22:21:28.044Z,5.17
2019-05-01T22:24:29.546Z,4.63
2019-05-01T22:27:06.926Z,5.53
2019-05-01T22:29:43.567Z,5.27
2019-05-01T22:32:32.347Z,5.07
2019-05-01T22:35:23.693Z,4.83
2019-05-01T22:37:55.333Z,5.83
2019-05-01T22:40:43.778Z,5.40
2019-05-01T22:43:15.129Z,5.17
2019-05-01T22:45:46.074Z,5.50
2019-05-01T22:48:17.683Z,5.87
2019-05-01T22:50:50.126Z,5.90
2019-05-01T22:53:20.737Z,5.53
2019-05-01T22:55:52.532Z,6.50
2019-05-01T22:58:23.387Z,5.63
2019-05-01T23:00:56.172Z,6.00
2019-05-01T23:03:40.479Z,6.17
2019-05-01T23:06:07.851Z,5.90
2019-05-01T23:08:39.038Z,6.70
2019-05-01T23:11:19.594Z,6.23
2019-05-01T23:13:43.682Z,6.07
2019-05-01T23:16:15.543Z,6.27
2019-05-01T23:18:47.017Z,5.87
2019-05-01T23:21:18.877Z,6.73
2019-05-01T23:23:49.568Z,6.27
2019-05-01T23:26:20.222Z,6.20
2019-05-01T23:28:50.891Z,6.43
2019-05-01T23:31:22.308Z,6.60
2019-05-01T23:33:52.982Z,6.37
2019-05-01T23:36:24.110Z,7.00
2019-05-01T23:38:54.841Z,7.03
2019-05-01T23:41:44.558Z,7.93
2019-05-01T23:44:03.065Z,7.80
2019-05-01T23:46:30.461Z,7.37
2019-05-01T23:49:01.085Z,7.80
2019-05-01T23:51:31.735Z,7.77
2019-05-01T23:54:02.422Z,8.17
2019-05-01T23:56:35.100Z,8.37
2019-05-01T23:59:05.725Z,8.30
